sensor_id;sensor_type;location;lat;lon;timestamp;pressure;altitude;pressure_sealevel;temperature;humidity
15529;BME280;7866;52.280;9.500;2022-11-15T00:02:41;99859.97;;;8.77;90.96
15529;BME280;7866;52.280;9.500;2022-11-15T00:07:44;99856.25;;;9.03;88.62
15529;BME280;7866;52.280;9.500;2022-11-15T00:12:46;99855.75;;;9.07;88.08
15529;BME280;7866;52.280;9.500;2022-11-15T00:17:48;99852.38;;;9.22;88.00
15529;BME280;7866;52.280;9.500;2022-11-15T00:22:51;99859.91;;;9.49;87.28
15529;BME280;7866;52.280;9.500;2022-11-15T00:27:55;99863.81;;;9.78;86.41
15529;BME280;7866;52.280;9.500;2022-11-15T00:32:57;99868.72;;;9.89;86.58
15529;BME280;7866;52.280;9.500;2022-11-15T00:38:03;99874.09;;;10.12;86.96
15529;BME280;7866;52.280;9.500;2022-11-15T00:43:05;99869.53;;;10.21;86.09
15529;BME280;7866;52.280;9.500;2022-11-15T00:48:07;99868.50;;;10.30;86.06
15529;BME280;7866;52.280;9.500;2022-11-15T00:53:10;99856.38;;;10.42;84.80
15529;BME280;7866;52.280;9.500;2022-11-15T00:58:12;99857.16;;;10.66;85.61
15529;BME280;7866;52.280;9.500;2022-11-15T01:03:13;99852.72;;;10.58;84.53
15529;BME280;7866;52.280;9.500;2022-11-15T01:08:16;99849.06;;;10.74;85.40
15529;BME280;7866;52.280;9.500;2022-11-15T01:13:18;99847.59;;;11.01;85.42
15529;BME280;7866;52.280;9.500;2022-11-15T01:18:20;99832.25;;;10.95;85.33
15529;BME280;7866;52.280;9.500;2022-11-15T01:23:23;99816.47;;;11.00;85.20
15529;BME280;7866;52.280;9.500;2022-11-15T01:28:24;99823.22;;;11.10;85.77
15529;BME280;7866;52.280;9.500;2022-11-15T01:33:26;99823.66;;;10.99;85.89
15529;BME280;7866;52.280;9.500;2022-11-15T01:38:30;99808.34;;;10.93;86.11
15529;BME280;7866;52.280;9.500;2022-11-15T01:43:33;99808.31;;;11.08;86.30
15529;BME280;7866;52.280;9.500;2022-11-15T01:48:36;99804.44;;;11.10;86.68
15529;BME280;7866;52.280;9.500;2022-11-15T01:53:41;99803.25;;;10.98;86.80
15529;BME280;7866;52.280;9.500;2022-11-15T01:58:44;99793.25;;;10.92;86.78
15529;BME280;7866;52.280;9.500;2022-11-15T02:03:51;99795.66;;;11.17;87.15
15529;BME280;7866;52.280;9.500;2022-11-15T02:08:56;99791.75;;;11.34;87.21
15529;BME280;7866;52.280;9.500;2022-11-15T02:13:59;99782.78;;;11.42;86.46
15529;BME280;7866;52.280;9.500;2022-11-15T02:19:15;99778.94;;;11.66;85.60
15529;BME280;7866;52.280;9.500;2022-11-15T02:24:40;99784.53;;;11.49;85.12
15529;BME280;7866;52.280;9.500;2022-11-15T02:30:18;99782.06;;;11.69;85.35
15529;BME280;7866;52.280;9.500;2022-11-15T02:35:28;99770.63;;;11.82;84.76
15529;BME280;7866;52.280;9.500;2022-11-15T02:40:38;99755.88;;;11.71;85.24
15529;BME280;7866;52.280;9.500;2022-11-15T02:45:47;99752.72;;;11.68;85.48
15529;BME280;7866;52.280;9.500;2022-11-15T02:50:52;99762.41;;;11.47;85.66
15529;BME280;7866;52.280;9.500;2022-11-15T02:55:55;99765.69;;;11.64;86.51
15529;BME280;7866;52.280;9.500;2022-11-15T03:01:04;99760.19;;;11.51;87.10
15529;BME280;7866;52.280;9.500;2022-11-15T03:06:19;99759.03;;;11.60;87.22
15529;BME280;7866;52.280;9.500;2022-11-15T03:11:22;99750.09;;;11.53;86.64
15529;BME280;7866;52.280;9.500;2022-11-15T03:16:29;99751.53;;;11.70;86.53
15529;BME280;7866;52.280;9.500;2022-11-15T03:21:34;99760.56;;;11.84;85.81
15529;BME280;7866;52.280;9.500;2022-11-15T03:26:38;99749.94;;;11.76;86.17
15529;BME280;7866;52.280;9.500;2022-11-15T03:31:45;99757.63;;;12.00;85.28
15529;BME280;7866;52.280;9.500;2022-11-15T03:36:49;99757.31;;;12.10;85.32
15529;BME280;7866;52.280;9.500;2022-11-15T03:41:59;99751.72;;;12.12;85.69
15529;BME280;7866;52.280;9.500;2022-11-15T03:47:09;99767.25;;;12.16;84.68
15529;BME280;7866;52.280;9.500;2022-11-15T03:52:11;99764.63;;;12.23;84.91
15529;BME280;7866;52.280;9.500;2022-11-15T03:57:13;99772.44;;;12.18;84.38
15529;BME280;7866;52.280;9.500;2022-11-15T04:02:16;99760.75;;;12.25;84.58
15529;BME280;7866;52.280;9.500;2022-11-15T04:07:18;99757.22;;;12.25;83.98
15529;BME280;7866;52.280;9.500;2022-11-15T04:12:19;99750.97;;;12.18;84.74
15529;BME280;7866;52.280;9.500;2022-11-15T04:17:32;99750.72;;;11.91;85.21
15529;BME280;7866;52.280;9.500;2022-11-15T04:22:33;99744.50;;;11.69;85.54
15529;BME280;7866;52.280;9.500;2022-11-15T04:27:53;99754.53;;;11.82;85.86
15529;BME280;7866;52.280;9.500;2022-11-15T04:32:56;99762.88;;;11.87;85.25
15529;BME280;7866;52.280;9.500;2022-11-15T04:37:58;99749.56;;;11.79;85.37
15529;BME280;7866;52.280;9.500;2022-11-15T04:42:59;99754.53;;;11.82;85.80
15529;BME280;7866;52.280;9.500;2022-11-15T04:48:03;99752.22;;;11.79;84.97
15529;BME280;7866;52.280;9.500;2022-11-15T04:53:04;99763.69;;;11.88;85.31
15529;BME280;7866;52.280;9.500;2022-11-15T04:58:06;99758.56;;;11.93;84.31
15529;BME280;7866;52.280;9.500;2022-11-15T05:03:10;99761.16;;;12.01;84.53
15529;BME280;7866;52.280;9.500;2022-11-15T05:08:43;99755.38;;;12.04;84.10
15529;BME280;7866;52.280;9.500;2022-11-15T05:13:45;99758.34;;;12.09;83.59
15529;BME280;7866;52.280;9.500;2022-11-15T05:18:50;99746.56;;;11.89;83.78
15529;BME280;7866;52.280;9.500;2022-11-15T05:23:52;99755.22;;;12.05;84.19
15529;BME280;7866;52.280;9.500;2022-11-15T05:28:54;99747.97;;;12.06;83.76
15529;BME280;7866;52.280;9.500;2022-11-15T05:33:59;99749.06;;;11.90;84.12
15529;BME280;7866;52.280;9.500;2022-11-15T05:39:03;99748.75;;;12.00;83.94
15529;BME280;7866;52.280;9.500;2022-11-15T05:44:07;99746.78;;;11.87;84.54
15529;BME280;7866;52.280;9.500;2022-11-15T05:49:13;99755.84;;;11.86;84.58
15529;BME280;7866;52.280;9.500;2022-11-15T05:54:17;99757.22;;;11.82;84.08
15529;BME280;7866;52.280;9.500;2022-11-15T05:59:21;99759.13;;;11.45;84.78
15529;BME280;7866;52.280;9.500;2022-11-15T06:04:24;99757.16;;;11.39;85.64
15529;BME280;7866;52.280;9.500;2022-11-15T06:09:26;99759.63;;;11.19;86.55
15529;BME280;7866;52.280;9.500;2022-11-15T06:14:28;99758.38;;;11.37;87.56
15529;BME280;7866;52.280;9.500;2022-11-15T06:19:31;99760.69;;;11.25;86.98
15529;BME280;7866;52.280;9.500;2022-11-15T06:24:33;99761.78;;;10.79;87.35
15529;BME280;7866;52.280;9.500;2022-11-15T06:29:35;99762.75;;;10.49;88.82
15529;BME280;7866;52.280;9.500;2022-11-15T06:34:38;99763.59;;;10.34;89.64
15529;BME280;7866;52.280;9.500;2022-11-15T06:39:39;99774.75;;;10.15;90.78
15529;BME280;7866;52.280;9.500;2022-11-15T06:44:41;99782.97;;;9.91;91.48
15529;BME280;7866;52.280;9.500;2022-11-15T06:49:44;99778.22;;;9.78;91.69
15529;BME280;7866;52.280;9.500;2022-11-15T06:54:45;99778.44;;;9.68;92.53
15529;BME280;7866;52.280;9.500;2022-11-15T06:59:47;99783.38;;;9.56;92.80
15529;BME280;7866;52.280;9.500;2022-11-15T07:04:50;99779.09;;;9.47;93.46
15529;BME280;7866;52.280;9.500;2022-11-15T07:09:52;99784.78;;;9.44;94.02
15529;BME280;7866;52.280;9.500;2022-11-15T07:14:53;99794.81;;;9.42;94.31
15529;BME280;7866;52.280;9.500;2022-11-15T07:19:56;99794.44;;;9.45;94.57
15529;BME280;7866;52.280;9.500;2022-11-15T07:24:58;99795.69;;;9.34;94.48
15529;BME280;7866;52.280;9.500;2022-11-15T07:29:59;99800.22;;;9.34;94.60
15529;BME280;7866;52.280;9.500;2022-11-15T07:35:03;99794.34;;;9.38;94.78
15529;BME280;7866;52.280;9.500;2022-11-15T07:40:06;99793.53;;;9.61;94.96
15529;BME280;7866;52.280;9.500;2022-11-15T07:45:08;99785.22;;;9.56;94.71
15529;BME280;7866;52.280;9.500;2022-11-15T07:50:11;99784.09;;;9.73;94.54
15529;BME280;7866;52.280;9.500;2022-11-15T07:55:13;99786.50;;;10.52;94.77
15529;BME280;7866;52.280;9.500;2022-11-15T08:00:16;99796.50;;;11.17;92.43
15529;BME280;7866;52.280;9.500;2022-11-15T08:05:19;99797.47;;;11.46;89.56
15529;BME280;7866;52.280;9.500;2022-11-15T08:10:20;99797.19;;;11.41;87.68
15529;BME280;7866;52.280;9.500;2022-11-15T08:15:22;99791.88;;;11.62;87.91
15529;BME280;7866;52.280;9.500;2022-11-15T08:20:26;99800.50;;;11.57;87.86
15529;BME280;7866;52.280;9.500;2022-11-15T08:25:31;99790.75;;;11.71;87.01
15529;BME280;7866;52.280;9.500;2022-11-15T08:30:35;99787.69;;;11.74;86.07
15529;BME280;7866;52.280;9.500;2022-11-15T08:35:39;99790.81;;;11.78;85.34
15529;BME280;7866;52.280;9.500;2022-11-15T08:40:41;99782.31;;;11.89;85.66
15529;BME280;7866;52.280;9.500;2022-11-15T08:45:43;99794.19;;;12.01;85.67
15529;BME280;7866;52.280;9.500;2022-11-15T08:50:46;99784.94;;;12.32;84.09
15529;BME280;7866;52.280;9.500;2022-11-15T08:55:48;99790.09;;;12.55;82.99
15529;BME280;7866;52.280;9.500;2022-11-15T09:00:50;99762.63;;;12.94;81.34
15529;BME280;7866;52.280;9.500;2022-11-15T09:05:55;99755.91;;;13.12;80.17
15529;BME280;7866;52.280;9.500;2022-11-15T09:10:57;99770.84;;;13.21;79.69
15529;BME280;7866;52.280;9.500;2022-11-15T09:15:59;99772.13;;;13.25;79.32
15529;BME280;7866;52.280;9.500;2022-11-15T09:21:03;99773.56;;;13.27;79.06
15529;BME280;7866;52.280;9.500;2022-11-15T09:26:05;99752.06;;;13.27;79.20
15529;BME280;7866;52.280;9.500;2022-11-15T09:31:07;99750.25;;;13.41;78.71
15529;BME280;7866;52.280;9.500;2022-11-15T09:36:11;99753.56;;;13.37;79.08
15529;BME280;7866;52.280;9.500;2022-11-15T09:41:34;99756.25;;;13.43;78.95
15529;BME280;7866;52.280;9.500;2022-11-15T09:46:45;99754.59;;;13.42;79.00
15529;BME280;7866;52.280;9.500;2022-11-15T09:51:54;99764.56;;;13.55;78.36
15529;BME280;7866;52.280;9.500;2022-11-15T09:57:04;99764.75;;;13.47;78.29
15529;BME280;7866;52.280;9.500;2022-11-15T10:02:23;99762.09;;;13.60;77.41
15529;BME280;7866;52.280;9.500;2022-11-15T10:07:39;99767.31;;;13.75;77.65
15529;BME280;7866;52.280;9.500;2022-11-15T10:12:46;99755.50;;;13.69;77.87
15529;BME280;7866;52.280;9.500;2022-11-15T10:18:07;99749.72;;;13.79;77.77
15529;BME280;7866;52.280;9.500;2022-11-15T10:23:14;99758.84;;;13.91;77.02
15529;BME280;7866;52.280;9.500;2022-11-15T10:28:22;99748.06;;;13.91;76.93
15529;BME280;7866;52.280;9.500;2022-11-15T10:33:27;99743.94;;;13.95;77.18
15529;BME280;7866;52.280;9.500;2022-11-15T10:38:32;99730.06;;;13.98;76.19
15529;BME280;7866;52.280;9.500;2022-11-15T10:43:33;99727.41;;;14.05;76.25
15529;BME280;7866;52.280;9.500;2022-11-15T10:48:35;99733.19;;;14.28;75.62
15529;BME280;7866;52.280;9.500;2022-11-15T10:53:43;99720.97;;;14.26;75.38
15529;BME280;7866;52.280;9.500;2022-11-15T10:58:53;99723.66;;;14.26;75.61
15529;BME280;7866;52.280;9.500;2022-11-15T11:03:59;99713.50;;;14.21;76.61
15529;BME280;7866;52.280;9.500;2022-11-15T11:09:04;99704.16;;;14.24;75.23
15529;BME280;7866;52.280;9.500;2022-11-15T11:14:11;99700.88;;;14.28;75.41
15529;BME280;7866;52.280;9.500;2022-11-15T11:19:31;99699.41;;;14.33;75.74
15529;BME280;7866;52.280;9.500;2022-11-15T11:24:43;99683.22;;;14.39;74.16
15529;BME280;7866;52.280;9.500;2022-11-15T11:29:57;99681.34;;;14.40;74.76
15529;BME280;7866;52.280;9.500;2022-11-15T11:35:08;99687.19;;;14.37;73.93
15529;BME280;7866;52.280;9.500;2022-11-15T11:40:21;99684.69;;;14.42;74.56
15529;BME280;7866;52.280;9.500;2022-11-15T11:45:42;99678.88;;;14.45;75.09
15529;BME280;7866;52.280;9.500;2022-11-15T11:50:47;99676.41;;;14.50;74.83
15529;BME280;7866;52.280;9.500;2022-11-15T11:55:53;99672.25;;;14.54;72.55
15529;BME280;7866;52.280;9.500;2022-11-15T12:00:59;99669.16;;;14.50;72.27
15529;BME280;7866;52.280;9.500;2022-11-15T12:06:09;99667.50;;;14.49;72.20
15529;BME280;7866;52.280;9.500;2022-11-15T12:11:20;99664.41;;;14.33;72.91
15529;BME280;7866;52.280;9.500;2022-11-15T12:16:26;99649.03;;;14.40;73.20
15529;BME280;7866;52.280;9.500;2022-11-15T12:21:34;99652.75;;;14.45;73.88
15529;BME280;7866;52.280;9.500;2022-11-15T12:26:42;99653.38;;;14.54;73.51
15529;BME280;7866;52.280;9.500;2022-11-15T12:31:50;99637.38;;;14.66;72.68
15529;BME280;7866;52.280;9.500;2022-11-15T12:36:53;99631.00;;;14.60;72.84
15529;BME280;7866;52.280;9.500;2022-11-15T12:47:31;99614.28;;;14.83;72.38
15529;BME280;7866;52.280;9.500;2022-11-15T12:52:33;99614.69;;;14.87;71.70
15529;BME280;7866;52.280;9.500;2022-11-15T12:57:41;99605.84;;;14.73;73.00
15529;BME280;7866;52.280;9.500;2022-11-15T13:02:46;99597.13;;;14.71;73.29
15529;BME280;7866;52.280;9.500;2022-11-15T13:07:56;99589.31;;;14.63;73.17
15529;BME280;7866;52.280;9.500;2022-11-15T13:12:59;99588.41;;;14.75;72.21
15529;BME280;7866;52.280;9.500;2022-11-15T13:18:25;99589.63;;;14.79;72.17
15529;BME280;7866;52.280;9.500;2022-11-15T13:23:28;99580.97;;;14.71;72.40
15529;BME280;7866;52.280;9.500;2022-11-15T13:28:32;99572.72;;;14.66;72.68
15529;BME280;7866;52.280;9.500;2022-11-15T13:33:37;99543.66;;;14.68;72.85
15529;BME280;7866;52.280;9.500;2022-11-15T13:38:41;99553.47;;;14.56;73.31
15529;BME280;7866;52.280;9.500;2022-11-15T13:43:42;99546.44;;;14.54;73.27
15529;BME280;7866;52.280;9.500;2022-11-15T13:48:52;99547.28;;;14.48;73.94
15529;BME280;7866;52.280;9.500;2022-11-15T13:53:58;99530.75;;;14.32;74.43
15529;BME280;7866;52.280;9.500;2022-11-15T13:59:08;99537.44;;;14.16;75.19
15529;BME280;7866;52.280;9.500;2022-11-15T14:04:13;99536.66;;;13.95;75.98
15529;BME280;7866;52.280;9.500;2022-11-15T14:09:34;99534.81;;;13.76;76.85
15529;BME280;7866;52.280;9.500;2022-11-15T14:14:44;99542.53;;;13.66;77.45
15529;BME280;7866;52.280;9.500;2022-11-15T14:19:47;99547.28;;;13.57;77.73
15529;BME280;7866;52.280;9.500;2022-11-15T14:25:14;99539.41;;;13.62;77.39
15529;BME280;7866;52.280;9.500;2022-11-15T14:30:17;99529.91;;;13.53;77.45
15529;BME280;7866;52.280;9.500;2022-11-15T14:35:22;99524.53;;;13.53;77.21
15529;BME280;7866;52.280;9.500;2022-11-15T14:40:24;99518.34;;;13.33;77.61
15529;BME280;7866;52.280;9.500;2022-11-15T14:45:27;99506.31;;;13.22;78.00
15529;BME280;7866;52.280;9.500;2022-11-15T14:50:31;99513.31;;;13.16;78.13
15529;BME280;7866;52.280;9.500;2022-11-15T14:55:34;99512.50;;;13.16;78.02
15529;BME280;7866;52.280;9.500;2022-11-15T15:00:38;99497.19;;;13.10;77.85
15529;BME280;7866;52.280;9.500;2022-11-15T15:05:43;99491.59;;;13.04;78.02
15529;BME280;7866;52.280;9.500;2022-11-15T15:10:45;99488.28;;;13.02;77.87
15529;BME280;7866;52.280;9.500;2022-11-15T15:15:48;99487.28;;;12.97;78.27
15529;BME280;7866;52.280;9.500;2022-11-15T15:20:55;99479.00;;;12.98;77.98
15529;BME280;7866;52.280;9.500;2022-11-15T15:25:58;99483.13;;;12.94;77.69
15529;BME280;7866;52.280;9.500;2022-11-15T15:30:59;99474.84;;;12.89;77.79
15529;BME280;7866;52.280;9.500;2022-11-15T15:36:03;99479.59;;;12.87;78.10
15529;BME280;7866;52.280;9.500;2022-11-15T15:41:09;99481.47;;;12.93;77.54
15529;BME280;7866;52.280;9.500;2022-11-15T15:46:12;99465.97;;;12.95;77.46
15529;BME280;7866;52.280;9.500;2022-11-15T15:51:16;99465.13;;;12.88;77.02
15529;BME280;7866;52.280;9.500;2022-11-15T15:56:18;99455.63;;;12.79;77.46
15529;BME280;7866;52.280;9.500;2022-11-15T16:01:19;99451.69;;;12.81;77.51
15529;BME280;7866;52.280;9.500;2022-11-15T16:06:38;99447.16;;;12.82;77.73
15529;BME280;7866;52.280;9.500;2022-11-15T16:11:45;99442.41;;;12.77;77.18
15529;BME280;7866;52.280;9.500;2022-11-15T16:16:47;99437.22;;;12.69;77.56
15529;BME280;7866;52.280;9.500;2022-11-15T16:21:50;99433.69;;;12.75;77.15
15529;BME280;7866;52.280;9.500;2022-11-15T16:26:52;99443.81;;;12.67;76.92
15529;BME280;7866;52.280;9.500;2022-11-15T16:31:53;99434.53;;;12.69;77.39
15529;BME280;7866;52.280;9.500;2022-11-15T16:36:57;99425.84;;;12.74;76.94
15529;BME280;7866;52.280;9.500;2022-11-15T16:41:59;99426.47;;;12.63;76.79
15529;BME280;7866;52.280;9.500;2022-11-15T16:47:02;99423.97;;;12.68;76.46
15529;BME280;7866;52.280;9.500;2022-11-15T16:52:05;99428.94;;;12.64;76.29
15529;BME280;7866;52.280;9.500;2022-11-15T16:57:08;99424.19;;;12.60;76.01
15529;BME280;7866;52.280;9.500;2022-11-15T17:02:11;99423.16;;;12.54;76.02
15529;BME280;7866;52.280;9.500;2022-11-15T17:07:14;99419.00;;;12.45;76.49
15529;BME280;7866;52.280;9.500;2022-11-15T17:12:16;99415.69;;;12.43;76.62
15529;BME280;7866;52.280;9.500;2022-11-15T17:17:18;99395.88;;;12.37;76.43
15529;BME280;7866;52.280;9.500;2022-11-15T17:22:21;99403.06;;;12.30;76.64
15529;BME280;7866;52.280;9.500;2022-11-15T17:27:23;99403.03;;;12.10;77.56
15529;BME280;7866;52.280;9.500;2022-11-15T17:32:25;99394.91;;;11.90;77.98
15529;BME280;7866;52.280;9.500;2022-11-15T17:37:28;99397.97;;;11.87;78.62
15529;BME280;7866;52.280;9.500;2022-11-15T17:42:29;99393.97;;;11.70;78.63
15529;BME280;7866;52.280;9.500;2022-11-15T17:47:31;99390.03;;;11.66;79.39
15529;BME280;7866;52.280;9.500;2022-11-15T17:52:34;99382.34;;;11.56;79.85
15529;BME280;7866;52.280;9.500;2022-11-15T17:57:36;99379.81;;;11.48;79.94
15529;BME280;7866;52.280;9.500;2022-11-15T18:02:38;99382.75;;;11.59;80.33
15529;BME280;7866;52.280;9.500;2022-11-15T18:07:41;99380.31;;;11.65;79.15
15529;BME280;7866;52.280;9.500;2022-11-15T18:12:42;99372.81;;;11.47;79.54
15529;BME280;7866;52.280;9.500;2022-11-15T18:17:44;99367.19;;;11.35;79.97
15529;BME280;7866;52.280;9.500;2022-11-15T18:22:47;99366.75;;;11.31;80.25
15529;BME280;7866;52.280;9.500;2022-11-15T18:27:49;99358.63;;;11.18;80.71
15529;BME280;7866;52.280;9.500;2022-11-15T18:32:54;99349.50;;;11.47;80.35
15529;BME280;7866;52.280;9.500;2022-11-15T18:37:57;99351.63;;;11.58;79.86
15529;BME280;7866;52.280;9.500;2022-11-15T18:42:59;99344.38;;;11.52;79.82
15529;BME280;7866;52.280;9.500;2022-11-15T18:48:00;99340.16;;;11.37;79.66
15529;BME280;7866;52.280;9.500;2022-11-15T18:53:03;99334.44;;;11.46;79.93
15529;BME280;7866;52.280;9.500;2022-11-15T18:58:05;99328.31;;;11.59;79.30
15529;BME280;7866;52.280;9.500;2022-11-15T19:03:07;99331.03;;;11.66;79.15
15529;BME280;7866;52.280;9.500;2022-11-15T19:08:10;99323.44;;;11.82;78.82
15529;BME280;7866;52.280;9.500;2022-11-15T19:13:11;99323.94;;;12.06;77.79
15529;BME280;7866;52.280;9.500;2022-11-15T19:18:13;99319.00;;;12.10;77.69
15529;BME280;7866;52.280;9.500;2022-11-15T19:23:16;99311.56;;;12.31;76.52
15529;BME280;7866;52.280;9.500;2022-11-15T19:28:18;99303.94;;;12.35;76.18
15529;BME280;7866;52.280;9.500;2022-11-15T19:33:20;99300.00;;;12.64;75.36
15529;BME280;7866;52.280;9.500;2022-11-15T19:38:23;99292.16;;;12.69;74.87
15529;BME280;7866;52.280;9.500;2022-11-15T19:43:25;99289.88;;;12.73;74.54
15529;BME280;7866;52.280;9.500;2022-11-15T19:48:27;99274.78;;;12.85;74.08
15529;BME280;7866;52.280;9.500;2022-11-15T19:53:32;99281.16;;;12.91;74.29
15529;BME280;7866;52.280;9.500;2022-11-15T19:58:34;99270.81;;;13.01;73.55
15529;BME280;7866;52.280;9.500;2022-11-15T20:03:37;99266.84;;;13.03;73.19
15529;BME280;7866;52.280;9.500;2022-11-15T20:08:41;99256.72;;;13.05;73.14
15529;BME280;7866;52.280;9.500;2022-11-15T20:13:43;99256.50;;;13.00;73.22
15529;BME280;7866;52.280;9.500;2022-11-15T20:18:45;99255.09;;;12.98;73.26
15529;BME280;7866;52.280;9.500;2022-11-15T20:23:48;99251.19;;;12.94;73.57
15529;BME280;7866;52.280;9.500;2022-11-15T20:28:50;99255.28;;;12.96;73.64
15529;BME280;7866;52.280;9.500;2022-11-15T20:33:52;99256.50;;;13.07;73.21
15529;BME280;7866;52.280;9.500;2022-11-15T20:38:56;99258.38;;;13.00;73.56
15529;BME280;7866;52.280;9.500;2022-11-15T20:43:59;99251.19;;;12.94;73.75
15529;BME280;7866;52.280;9.500;2022-11-15T20:49:02;99253.44;;;12.97;73.23
15529;BME280;7866;52.280;9.500;2022-11-15T20:54:05;99248.72;;;12.86;74.10
15529;BME280;7866;52.280;9.500;2022-11-15T20:59:08;99241.25;;;12.88;74.00
15529;BME280;7866;52.280;9.500;2022-11-15T21:04:09;99239.84;;;12.85;74.14
15529;BME280;7866;52.280;9.500;2022-11-15T21:09:12;99228.06;;;12.79;74.37
15529;BME280;7866;52.280;9.500;2022-11-15T21:14:32;99230.28;;;12.96;73.63
15529;BME280;7866;52.280;9.500;2022-11-15T21:19:33;99237.28;;;13.03;72.96
15529;BME280;7866;52.280;9.500;2022-11-15T21:24:36;99217.47;;;12.98;73.56
15529;BME280;7866;52.280;9.500;2022-11-15T21:29:38;99222.66;;;12.93;73.64
15529;BME280;7866;52.280;9.500;2022-11-15T21:34:40;99210.81;;;13.00;73.40
15529;BME280;7866;52.280;9.500;2022-11-15T21:39:43;99210.47;;;12.90;73.76
15529;BME280;7866;52.280;9.500;2022-11-15T21:44:44;99202.63;;;12.89;73.85
15529;BME280;7866;52.280;9.500;2022-11-15T21:49:46;99202.88;;;12.74;74.91
15529;BME280;7866;52.280;9.500;2022-11-15T21:54:49;99207.19;;;12.75;75.27
15529;BME280;7866;52.280;9.500;2022-11-15T21:59:51;99209.84;;;12.88;74.20
15529;BME280;7866;52.280;9.500;2022-11-15T22:05:07;99206.97;;;12.76;75.19
15529;BME280;7866;52.280;9.500;2022-11-15T22:10:10;99216.13;;;12.55;76.29
15529;BME280;7866;52.280;9.500;2022-11-15T22:15:11;99203.13;;;12.32;77.62
15529;BME280;7866;52.280;9.500;2022-11-15T22:20:13;99189.34;;;12.16;79.46
15529;BME280;7866;52.280;9.500;2022-11-15T22:25:17;99199.88;;;12.17;79.42
15529;BME280;7866;52.280;9.500;2022-11-15T22:30:19;99178.38;;;12.24;79.13
15529;BME280;7866;52.280;9.500;2022-11-15T22:35:20;99180.22;;;12.50;77.39
15529;BME280;7866;52.280;9.500;2022-11-15T22:40:24;99171.34;;;12.49;77.12
15529;BME280;7866;52.280;9.500;2022-11-15T22:45:25;99162.19;;;12.64;76.17
15529;BME280;7866;52.280;9.500;2022-11-15T22:50:27;99165.09;;;12.62;75.40
15529;BME280;7866;52.280;9.500;2022-11-15T22:55:30;99155.91;;;12.83;74.11
15529;BME280;7866;52.280;9.500;2022-11-15T23:00:32;99147.25;;;12.81;73.73
15529;BME280;7866;52.280;9.500;2022-11-15T23:05:36;99142.31;;;12.78;74.02
15529;BME280;7866;52.280;9.500;2022-11-15T23:10:39;99133.59;;;12.89;72.57
15529;BME280;7866;52.280;9.500;2022-11-15T23:16:01;99121.78;;;12.90;72.83
15529;BME280;7866;52.280;9.500;2022-11-15T23:21:23;99124.06;;;12.93;72.83
15529;BME280;7866;52.280;9.500;2022-11-15T23:26:40;99123.59;;;12.96;72.28
15529;BME280;7866;52.280;9.500;2022-11-15T23:31:43;99109.31;;;13.02;71.13
15529;BME280;7866;52.280;9.500;2022-11-15T23:37:03;99099.97;;;13.12;70.20
15529;BME280;7866;52.280;9.500;2022-11-15T23:42:06;99102.63;;;13.25;69.53
15529;BME280;7866;52.280;9.500;2022-11-15T23:47:18;99102.38;;;13.20;69.64
15529;BME280;7866;52.280;9.500;2022-11-15T23:52:20;99093.09;;;13.16;69.46
15529;BME280;7866;52.280;9.500;2022-11-15T23:57:25;99079.63;;;13.29;69.08
